Flagstaff, AZ (86004)

8:52 AM MST on August 27, 2014 (GMT -0700)
Elk Run | Change Station
CLOSE
Current Station
Personal Weather Station
Location: Flagstaff, AZ
Elevation: 6855 ft
Nearby Weather Stations

Elev 6855 ft 35.21 °N, 111.60 °W | Updated 6 seconds ago

Partly Cloudy
Partly Cloudy
57.7 °F
Feels Like 57.7 °F
N
0.0
Wind Variable Wind from WNW
Gusts 3.0 mph

Today
High -- | Low -- °F
--% Chance of Precip.
Yesterday
High -- | Low -- °F
Precip. -- in
5:55 AM 6:59 PM
Waxing Crescent, 4% visible
Pressure 30.42 in
Visibility 10.0 miles
Clouds Few 700 ft
Dew Point 55 °F
Humidity 90%
Rainfall 0.04 in
Snow Depth Not available.
UV 4 out of 12
Pollen 5.40 out of 12
Air Quality Not available.
Flu Activity Not available.
SPECI KFLG 271548Z 00000KT 10SM FEW007 14/11 A3042 RMK AO2 T01440111

More Conditions Fewer Conditions

Pressure 30.42 in
Visibility 10.0 miles
Clouds Few 700 ft
Dew Point 55 °F
Humidity 90%
Rainfall 0.04 in
Snow Depth Not available.
UV 4 out of 12
Pollen 5.40 out of 12
Air Quality Not available.
Flu Activity Not available.
SPECI KFLG 271548Z 00000KT 10SM FEW007 14/11 A3042 RMK AO2 T01440111

More Conditions Fewer Conditions

10-Day Weather Forecast

Almanac

Astronomy

Aug. 27, 2014 Rise Set
Actual Time 5:55 AM MST 6:59 PM MST
Civil Twilight 5:28 AM MST 7:25 PM MST
Nautical Twilight 4:57 AM MST 7:56 PM MST
Astronomical Twilight 4:25 AM MST 8:29 PM MST
Moon 7:48 AM MST 8:00 PM MST
Length of Visible Light 13h 57m
Length of Day
13h 04m
Tomorrow will be 2m 5s shorter.
Waxing Crescent, 4% of the Moon is Illuminated
Today
Waxing Crescent
Sep 2
First Quarter
Sep 8
Full
Sep 15
Last Quarter
Sep 24
New

Today's Extremes

State Highs State Lows

Community

WunderPhotos

Upload Photos

1,747,711 photos uploaded!

Nearby

Snow Depth

Station Depth Elevation
White Horse Lake 0 in 7180 ft
Happy Jack 0 in 7630 ft
Snowslide Canyon 2 in 9730 ft
Promontory 0 in 7930 ft
Heber 0 in 7640 ft

Earthquake Activity

City Distance Mag. Time & Date
No recent earthquake activity has been reported nearby.
Minimum magnitude displayed is 2.5.

Coastal Water Temperatures

Place Temperature
No Stations Reporting

Nearby Weather Stations